createdAt,value
2022-09-02T00:00:21.895Z,3.90
2022-09-02T00:01:01.034Z,4.40
2022-09-02T00:01:40.779Z,3.88
2022-09-02T00:02:13.638Z,3.75
2022-09-02T00:02:48.380Z,4.10
2022-09-02T00:03:21.019Z,3.95
2022-09-02T00:03:56.371Z,4.50
2022-09-02T00:04:28.411Z,3.85
2022-09-02T00:05:00.570Z,4.40
2022-09-02T00:05:33.169Z,3.40
2022-09-02T00:06:05.344Z,4.35
2022-09-02T00:06:37.719Z,4.18
2022-09-02T00:07:09.933Z,4.47
2022-09-02T00:07:41.912Z,3.97
2022-09-02T00:08:13.926Z,4.40
2022-09-02T00:08:45.970Z,4.82
2022-09-02T00:09:22.250Z,4.50
2022-09-02T00:09:54.825Z,4.65
2022-09-02T00:10:26.959Z,4.43
2022-09-02T00:11:01.093Z,4.15
2022-09-02T00:11:36.743Z,4.38
2022-09-02T00:12:09.650Z,4.53
2022-09-02T00:12:41.677Z,4.55
2022-09-02T00:13:15.141Z,4.65
2022-09-02T00:13:47.273Z,4.93
2022-09-02T00:14:27.651Z,4.60
2022-09-02T00:14:59.711Z,4.90
2022-09-02T00:15:31.747Z,4.30
2022-09-02T00:16:05.180Z,5.10
2022-09-02T00:16:37.715Z,4.72
2022-09-02T00:17:09.744Z,4.70
2022-09-02T00:17:42.008Z,4.70
2022-09-02T00:18:18.105Z,5.20
2022-09-02T00:18:53.681Z,5.00
2022-09-02T00:19:26.317Z,4.68
2022-09-02T00:19:58.308Z,5.20
2022-09-02T00:20:30.382Z,5.10
2022-09-02T00:21:02.719Z,5.25
2022-09-02T00:21:35.053Z,5.30
2022-09-02T00:22:07.151Z,5.00
2022-09-02T00:22:39.435Z,5.15
2022-09-02T00:23:11.885Z,5.47
2022-09-02T00:23:44.280Z,4.50
2022-09-02T00:24:17.349Z,4.95
2022-09-02T00:24:49.555Z,4.90
2022-09-02T00:25:21.617Z,5.07
2022-09-02T00:25:53.625Z,4.68
2022-09-02T00:26:26.018Z,5.10
2022-09-02T00:26:58.054Z,5.70
2022-09-02T00:27:30.791Z,5.03
2022-09-02T00:28:02.975Z,5.18
2022-09-02T00:28:35.381Z,5.00
2022-09-02T00:29:07.437Z,5.00
2022-09-02T00:29:39.788Z,5.45
2022-09-02T00:30:12.618Z,4.93
2022-09-02T00:30:44.689Z,4.93
2022-09-02T00:31:17.513Z,4.80
2022-09-02T00:31:49.590Z,5.05
2022-09-02T00:32:21.765Z,5.53
2022-09-02T00:32:54.127Z,5.60
2022-09-02T00:33:26.259Z,5.55
2022-09-02T00:33:58.332Z,5.30
2022-09-02T00:34:30.373Z,6.00
2022-09-02T00:35:04.888Z,5.38
2022-09-02T00:35:37.037Z,5.80
2022-09-02T00:36:09.304Z,4.70
2022-09-02T00:36:41.389Z,5.60
2022-09-02T00:37:13.427Z,5.40
2022-09-02T00:37:45.450Z,5.32
2022-09-02T00:38:17.687Z,6.22
2022-09-02T00:38:49.912Z,5.35
2022-09-02T00:39:21.895Z,5.00
2022-09-02T00:39:54.375Z,5.60
2022-09-02T00:40:27.427Z,6.05
2022-09-02T00:41:00.117Z,5.85
2022-09-02T00:41:32.628Z,5.25
2022-09-02T00:42:05.800Z,5.90
2022-09-02T00:42:38.252Z,5.38
2022-09-02T00:43:10.273Z,5.55
2022-09-02T00:43:42.910Z,5.65
2022-09-02T00:44:16.829Z,5.63
2022-09-02T00:44:49.399Z,5.20
2022-09-02T00:45:21.936Z,5.93
2022-09-02T00:45:55.397Z,5.40
2022-09-02T00:46:28.389Z,5.50
2022-09-02T00:47:02.769Z,5.55
2022-09-02T00:47:35.793Z,5.55
2022-09-02T00:48:07.817Z,5.75
2022-09-02T00:48:41.927Z,5.75
2022-09-02T00:49:24.269Z,5.75
2022-09-02T00:49:56.407Z,5.25
2022-09-02T00:50:29.815Z,5.80
2022-09-02T00:51:03.563Z,5.95
2022-09-02T00:51:51.453Z,6.07
2022-09-02T00:52:24.688Z,5.78
2022-09-02T00:53:00.619Z,6.63
2022-09-02T00:53:35.689Z,6.15
2022-09-02T00:54:08.198Z,6.05
2022-09-02T00:54:44.323Z,6.28
2022-09-02T00:55:20.776Z,5.72
2022-09-02T00:55:52.762Z,6.43
2022-09-02T00:56:26.644Z,5.85
2022-09-02T00:57:00.291Z,6.22
2022-09-02T00:57:34.010Z,6.10
2022-09-02T00:58:09.565Z,7.05
2022-09-02T00:58:43.449Z,6.05
2022-09-02T00:59:20.157Z,6.75
2022-09-02T00:59:58.647Z,6.38
2022-09-02T01:00:34.901Z,5.63
2022-09-02T01:01:07.111Z,6.20
2022-09-02T01:01:39.325Z,6.10
2022-09-02T01:02:12.299Z,6.80
2022-09-02T01:02:47.233Z,6.55
2022-09-02T01:03:20.740Z,6.65
2022-09-02T01:03:53.029Z,6.30
2022-09-02T01:04:26.144Z,6.80
2022-09-02T01:05:01.483Z,5.90
2022-09-02T01:05:35.290Z,6.78
2022-09-02T01:06:08.082Z,7.32
2022-09-02T01:06:41.027Z,6.40
2022-09-02T01:07:13.246Z,6.80
2022-09-02T01:07:45.574Z,6.63
2022-09-02T01:08:19.753Z,6.82
2022-09-02T01:08:57.092Z,6.70
2022-09-02T01:09:29.107Z,7.15
2022-09-02T01:10:01.976Z,6.90
2022-09-02T01:10:34.939Z,6.97
2022-09-02T01:11:07.103Z,7.93
2022-09-02T01:11:41.186Z,7.70
2022-09-02T01:12:15.751Z,8.18
2022-09-02T01:12:49.232Z,8.13
2022-09-02T01:13:23.834Z,8.13
2022-09-02T01:13:55.827Z,7.97
2022-09-02T01:14:28.942Z,7.90
2022-09-02T01:15:01.253Z,9.02
2022-09-02T01:15:38.176Z,8.25
2022-09-02T01:16:17.060Z,9.30
2022-09-02T01:16:51.831Z,8.82
2022-09-02T01:17:25.208Z,8.68
2022-09-02T01:17:58.422Z,9.55
2022-09-02T01:18:31.772Z,9.60
2022-09-02T01:19:06.154Z,9.43
2022-09-02T01:19:43.373Z,8.90
2022-09-02T01:20:17.366Z,9.43
2022-09-02T01:20:49.483Z,9.15
2022-09-02T01:21:23.101Z,10.38
2022-09-02T01:21:56.119Z,9.93
2022-09-02T01:22:29.567Z,11.00
2022-09-02T01:23:02.338Z,10.68
2022-09-02T01:23:34.852Z,11.48
2022-09-02T01:24:07.514Z,9.55
2022-09-02T01:24:39.520Z,11.02
2022-09-02T01:25:14.633Z,10.70
2022-09-02T01:25:47.159Z,10.73
2022-09-02T01:26:19.301Z,11.20
2022-09-02T01:26:54.607Z,11.35
2022-09-02T01:27:27.552Z,11.75
2022-09-02T01:28:01.414Z,11.43
2022-09-02T01:28:33.880Z,12.00
2022-09-02T01:29:05.882Z,12.98
2022-09-02T01:29:37.973Z,12.48
2022-09-02T01:30:12.394Z,12.70
2022-09-02T01:30:46.738Z,14.07
2022-09-02T01:31:18.819Z,13.20
2022-09-02T01:31:51.484Z,13.82
2022-09-02T01:32:24.144Z,14.23
2022-09-02T01:32:56.232Z,14.52
2022-09-02T01:33:28.418Z,14.15
2022-09-02T01:34:03.012Z,13.65
2022-09-02T01:34:35.085Z,14.13
2022-09-02T01:35:07.321Z,13.93
2022-09-02T01:35:39.816Z,14.15
2022-09-02T01:36:11.890Z,15.13
2022-09-02T01:36:43.928Z,15.45
2022-09-02T01:37:16.282Z,14.93
2022-09-02T01:37:54.788Z,15.52
2022-09-02T01:38:28.035Z,15.48
2022-09-02T01:39:00.071Z,15.55
2022-09-02T01:39:32.688Z,17.15
2022-09-02T01:40:06.967Z,16.77
2022-09-02T01:40:40.732Z,16.23
2022-09-02T01:41:12.772Z,17.48
2022-09-02T01:41:44.978Z,16.63
2022-09-02T01:42:16.974Z,15.95
2022-09-02T01:42:53.154Z,16.98
2022-09-02T01:43:26.797Z,17.27
2022-09-02T01:43:58.843Z,17.23
2022-09-02T01:44:32.578Z,17.60
2022-09-02T01:45:05.443Z,16.58
2022-09-02T01:45:38.484Z,17.38
2022-09-02T01:46:10.714Z,17.80
2022-09-02T01:46:43.198Z,18.50
2022-09-02T01:47:17.099Z,18.00
2022-09-02T01:47:50.594Z,16.77
2022-09-02T01:48:23.102Z,18.90
2022-09-02T01:48:56.878Z,18.77
2022-09-02T01:49:28.916Z,16.85
2022-09-02T01:50:07.807Z,19.15
2022-09-02T01:50:46.809Z,17.63
2022-09-02T01:51:20.646Z,17.88
2022-09-02T01:51:56.422Z,17.95
2022-09-02T01:52:29.284Z,18.13
2022-09-02T01:53:03.958Z,17.88
2022-09-02T01:53:37.610Z,17.88
2022-09-02T01:54:11.368Z,17.55
2022-09-02T01:54:44.525Z,17.95
2022-09-02T01:55:16.591Z,18.70
2022-09-02T01:55:48.639Z,17.95
2022-09-02T01:56:20.649Z,19.42
2022-09-02T01:56:53.807Z,18.77
2022-09-02T01:57:25.878Z,18.75
2022-09-02T01:57:58.278Z,19.15
2022-09-02T01:58:31.077Z,18.98
2022-09-02T01:59:03.290Z,19.83
2022-09-02T01:59:35.313Z,19.08
2022-09-02T02:00:08.993Z,18.63
2022-09-02T02:00:44.516Z,19.48
2022-09-02T02:01:16.662Z,19.15
2022-09-02T02:01:51.553Z,18.90
2022-09-02T02:02:25.209Z,19.92
2022-09-02T02:02:58.023Z,18.88
2022-09-02T02:03:30.373Z,19.98
2022-09-02T02:04:04.274Z,18.77
2022-09-02T02:04:37.374Z,19.17
2022-09-02T02:05:10.831Z,19.83
2022-09-02T02:05:44.937Z,18.52
2022-09-02T02:06:20.444Z,19.73
2022-09-02T02:06:53.518Z,21.13
2022-09-02T02:07:26.807Z,19.75
2022-09-02T02:07:59.503Z,21.05
2022-09-02T02:08:31.487Z,19.45
2022-09-02T02:09:04.631Z,18.35
2022-09-02T02:09:38.347Z,19.42
2022-09-02T02:10:21.203Z,20.00
2022-09-02T02:10:54.632Z,19.90
2022-09-02T02:11:28.107Z,19.52
2022-09-02T02:12:04.861Z,18.55
2022-09-02T02:12:37.892Z,19.42
2022-09-02T02:13:10.932Z,18.92
2022-09-02T02:14:02.364Z,19.65
2022-09-02T02:14:35.157Z,18.05
2022-09-02T02:15:08.966Z,18.27
2022-09-02T02:15:42.384Z,19.63
2022-09-02T02:16:15.810Z,18.95
2022-09-02T02:16:48.074Z,18.05
2022-09-02T02:17:20.057Z,19.50
2022-09-02T02:17:52.092Z,17.90
2022-09-02T02:18:24.250Z,18.23
2022-09-02T02:18:56.259Z,19.33
2022-09-02T02:19:28.657Z,19.35
2022-09-02T02:20:00.925Z,19.83
2022-09-02T02:20:33.169Z,18.15
2022-09-02T02:21:05.337Z,19.13
2022-09-02T02:21:37.334Z,19.23
2022-09-02T02:22:10.163Z,21.17
2022-09-02T02:22:42.982Z,18.42
2022-09-02T02:23:15.771Z,19.45
2022-09-02T02:23:47.773Z,19.42
2022-09-02T02:24:19.836Z,19.27
2022-09-02T02:24:51.846Z,20.38
2022-09-02T02:25:23.945Z,20.60
2022-09-02T02:25:58.943Z,19.25
2022-09-02T02:26:32.100Z,19.08
2022-09-02T02:27:05.115Z,19.05
2022-09-02T02:27:37.123Z,18.33
2022-09-02T02:28:11.498Z,17.67
2022-09-02T02:28:44.791Z,18.17
2022-09-02T02:29:16.881Z,20.00
2022-09-02T02:29:49.415Z,17.83
2022-09-02T02:30:22.199Z,18.63
2022-09-02T02:30:54.661Z,20.13
2022-09-02T02:31:26.932Z,18.23
2022-09-02T02:31:59.680Z,19.13
2022-09-02T02:32:32.618Z,18.48
2022-09-02T02:33:05.987Z,19.13
2022-09-02T02:33:38.507Z,18.23
2022-09-02T02:34:11.088Z,17.67
2022-09-02T02:34:43.421Z,19.33
2022-09-02T02:35:16.569Z,18.58
2022-09-02T02:35:48.578Z,18.05
2022-09-02T02:36:20.909Z,19.17
2022-09-02T02:36:53.493Z,19.13
2022-09-02T02:37:26.733Z,17.80
2022-09-02T02:37:58.786Z,17.83
2022-09-02T02:38:36.689Z,17.92
2022-09-02T02:39:10.273Z,17.52
2022-09-02T02:39:43.804Z,18.30
2022-09-02T02:40:17.444Z,18.38
2022-09-02T02:40:50.050Z,18.13
2022-09-02T02:41:22.088Z,18.30
2022-09-02T02:41:54.961Z,17.23
2022-09-02T02:42:27.039Z,18.33
2022-09-02T02:42:59.360Z,17.15
2022-09-02T02:43:31.391Z,17.35
2022-09-02T02:44:04.079Z,18.40
2022-09-02T02:44:39.391Z,16.95
2022-09-02T02:45:15.278Z,18.88
2022-09-02T02:45:48.092Z,17.88
2022-09-02T02:46:20.187Z,18.35
2022-09-02T02:46:52.466Z,19.40
2022-09-02T02:47:25.024Z,17.85
2022-09-02T02:47:57.064Z,19.65
2022-09-02T02:48:30.305Z,17.35
2022-09-02T02:49:03.261Z,18.15
2022-09-02T02:49:39.084Z,19.70
2022-09-02T02:50:12.483Z,18.83
2022-09-02T02:50:44.543Z,18.63
2022-09-02T02:51:16.949Z,19.30
2022-09-02T02:51:50.317Z,17.85
2022-09-02T02:52:22.391Z,18.98
2022-09-02T02:52:54.997Z,17.33
2022-09-02T02:53:29.729Z,18.88
2022-09-02T02:54:02.160Z,17.25
2022-09-02T02:54:35.286Z,18.48
2022-09-02T02:55:09.335Z,17.20
2022-09-02T02:55:41.380Z,17.13
2022-09-02T02:56:13.624Z,17.55
2022-09-02T02:56:45.800Z,18.88
2022-09-02T02:57:18.120Z,17.83
2022-09-02T02:57:50.455Z,18.27
2022-09-02T02:58:23.036Z,18.85
2022-09-02T02:58:55.311Z,17.63
2022-09-02T02:59:27.348Z,17.10
2022-09-02T03:00:02.978Z,17.98
2022-09-02T03:00:36.922Z,18.70
2022-09-02T03:01:09.646Z,18.25
2022-09-02T03:01:41.805Z,17.27
2022-09-02T03:02:14.031Z,16.52
2022-09-02T03:02:47.006Z,18.08
2022-09-02T03:03:19.858Z,16.65
2022-09-02T03:03:54.417Z,16.67
2022-09-02T03:04:27.834Z,17.52
2022-09-02T03:05:00.744Z,16.85
2022-09-02T03:05:35.576Z,16.95
2022-09-02T03:06:08.423Z,16.65
2022-09-02T03:06:40.452Z,17.80
2022-09-02T03:07:12.493Z,17.30
2022-09-02T03:07:45.236Z,17.13
2022-09-02T03:08:21.030Z,16.58
2022-09-02T03:08:55.427Z,17.92
2022-09-02T03:09:27.430Z,17.27
2022-09-02T03:09:59.556Z,18.73
2022-09-02T03:10:32.824Z,18.02
2022-09-02T03:11:07.052Z,18.52
2022-09-02T03:11:43.078Z,18.50
2022-09-02T03:12:16.711Z,18.83
2022-09-02T03:12:50.881Z,18.02
2022-09-02T03:13:25.646Z,17.90
2022-09-02T03:13:59.463Z,17.42
2022-09-02T03:14:32.328Z,16.50
2022-09-02T03:15:04.833Z,17.23
2022-09-02T03:15:37.993Z,17.42
2022-09-02T03:16:10.698Z,16.65
2022-09-02T03:16:43.303Z,17.25
2022-09-02T03:17:15.446Z,16.85
2022-09-02T03:17:48.018Z,17.90
2022-09-02T03:18:20.542Z,18.20
2022-09-02T03:18:54.355Z,18.17
2022-09-02T03:19:27.674Z,18.08
2022-09-02T03:19:59.734Z,17.58
2022-09-02T03:20:35.407Z,17.60
2022-09-02T03:21:10.258Z,18.58
2022-09-02T03:21:42.785Z,17.10
2022-09-02T03:22:16.238Z,17.83
2022-09-02T03:22:48.575Z,18.38
2022-09-02T03:23:20.735Z,18.38
2022-09-02T03:23:55.103Z,18.63
2022-09-02T03:24:29.937Z,17.83
2022-09-02T03:25:02.226Z,17.13
2022-09-02T03:25:35.891Z,17.58
2022-09-02T03:26:18.972Z,17.25
2022-09-02T03:26:51.236Z,18.25
2022-09-02T03:27:23.728Z,16.75
2022-09-02T03:27:56.954Z,17.15
2022-09-02T03:28:29.073Z,17.58
2022-09-02T03:29:03.849Z,17.45
2022-09-02T03:29:36.692Z,18.60
2022-09-02T03:30:10.658Z,17.55
2022-09-02T03:30:42.960Z,16.92
2022-09-02T03:31:16.962Z,17.88
2022-09-02T03:31:49.173Z,17.10
2022-09-02T03:32:21.333Z,18.33
2022-09-02T03:32:54.511Z,17.38
2022-09-02T03:33:26.530Z,17.40
2022-09-02T03:34:00.329Z,17.95
2022-09-02T03:34:33.266Z,17.88
2022-09-02T03:35:07.726Z,17.98
2022-09-02T03:35:41.806Z,18.73
2022-09-02T03:36:27.261Z,18.80
2022-09-02T03:37:00.521Z,17.40
2022-09-02T03:37:32.928Z,17.00
2022-09-02T03:38:05.463Z,18.50
2022-09-02T03:38:37.523Z,18.88
2022-09-02T03:39:10.213Z,16.35
2022-09-02T03:39:44.710Z,17.40
2022-09-02T03:40:18.521Z,17.92
2022-09-02T03:40:52.671Z,16.85
2022-09-02T03:41:25.020Z,16.65
2022-09-02T03:41:58.954Z,16.75
2022-09-02T03:42:33.012Z,17.05
2022-09-02T03:43:05.385Z,17.83
2022-09-02T03:43:37.528Z,16.98
2022-09-02T03:44:10.132Z,16.35
2022-09-02T03:44:42.689Z,15.93
2022-09-02T03:45:16.017Z,16.15
2022-09-02T03:45:48.423Z,17.25
2022-09-02T03:46:20.536Z,17.63
2022-09-02T03:46:53.214Z,14.68
2022-09-02T03:47:25.541Z,16.30
2022-09-02T03:47:59.181Z,16.35
2022-09-02T03:48:35.775Z,16.67
2022-09-02T03:49:07.973Z,16.98
2022-09-02T03:49:39.955Z,16.50
2022-09-02T03:50:16.025Z,16.45
2022-09-02T03:50:48.031Z,15.75
2022-09-02T03:51:25.273Z,15.25
2022-09-02T03:51:57.343Z,15.32
2022-09-02T03:52:29.674Z,16.48
2022-09-02T03:53:03.887Z,15.30
2022-09-02T03:53:36.606Z,16.08
2022-09-02T03:54:10.251Z,15.98
2022-09-02T03:54:42.945Z,15.10
2022-09-02T03:55:15.213Z,15.50
2022-09-02T03:55:47.332Z,15.35
2022-09-02T03:56:22.225Z,16.08
2022-09-02T03:56:54.541Z,15.77
2022-09-02T03:57:27.979Z,15.23
2022-09-02T03:58:06.562Z,15.80
2022-09-02T03:58:42.738Z,15.35
2022-09-02T03:59:14.763Z,16.08
2022-09-02T03:59:46.752Z,15.93
2022-09-02T04:00:20.375Z,15.45
2022-09-02T04:00:53.206Z,15.75
2022-09-02T04:01:29.035Z,16.42
2022-09-02T04:02:08.383Z,15.15
2022-09-02T04:02:41.962Z,14.13
2022-09-02T04:03:16.554Z,15.48
2022-09-02T04:03:49.643Z,14.73
2022-09-02T04:04:23.067Z,15.07
2022-09-02T04:04:56.838Z,15.07
2022-09-02T04:05:29.525Z,14.38
2022-09-02T04:06:03.294Z,15.80
2022-09-02T04:06:35.295Z,14.68
2022-09-02T04:07:08.775Z,15.40
2022-09-02T04:07:40.875Z,15.30
2022-09-02T04:08:14.780Z,13.43
2022-09-02T04:08:47.571Z,13.88
2022-09-02T04:09:19.711Z,14.63
2022-09-02T04:09:51.723Z,14.07
2022-09-02T04:10:23.903Z,14.10
2022-09-02T04:10:56.348Z,14.40
2022-09-02T04:11:28.469Z,13.40
2022-09-02T04:12:00.513Z,15.45
2022-09-02T04:12:32.576Z,13.25
2022-09-02T04:13:04.796Z,14.30
2022-09-02T04:13:37.221Z,13.73
2022-09-02T04:14:09.813Z,14.63
2022-09-02T04:14:42.437Z,14.63
2022-09-02T04:15:15.574Z,13.18
2022-09-02T04:15:49.116Z,13.80
2022-09-02T04:16:28.883Z,13.68
2022-09-02T04:17:04.768Z,12.85
2022-09-02T04:17:37.133Z,13.48
2022-09-02T04:18:09.385Z,13.50
2022-09-02T04:18:41.693Z,12.77
2022-09-02T04:19:14.515Z,13.10
2022-09-02T04:19:47.030Z,12.93
2022-09-02T04:20:19.376Z,13.65
2022-09-02T04:20:51.435Z,13.57
2022-09-02T04:21:25.290Z,12.98
2022-09-02T04:21:57.330Z,13.25
2022-09-02T04:22:29.514Z,11.90
2022-09-02T04:23:03.123Z,13.52
2022-09-02T04:23:35.691Z,12.68
2022-09-02T04:24:09.314Z,12.70
2022-09-02T04:24:43.094Z,12.00
2022-09-02T04:25:15.177Z,12.68
2022-09-02T04:25:47.263Z,12.38
2022-09-02T04:26:21.547Z,12.70
2022-09-02T04:27:01.894Z,12.68
2022-09-02T04:27:38.401Z,12.70
2022-09-02T04:28:12.994Z,12.50
2022-09-02T04:28:45.054Z,12.52
2022-09-02T04:29:18.096Z,12.30
2022-09-02T04:29:53.127Z,12.07
2022-09-02T04:30:25.570Z,10.95
2022-09-02T04:30:58.021Z,12.20
2022-09-02T04:31:30.958Z,12.45
2022-09-02T04:32:04.201Z,12.10
2022-09-02T04:32:40.393Z,11.50
2022-09-02T04:33:13.804Z,12.30
2022-09-02T04:33:46.367Z,12.98
2022-09-02T04:34:20.872Z,11.23
2022-09-02T04:34:54.846Z,12.60
2022-09-02T04:35:27.930Z,11.25
2022-09-02T04:36:00.076Z,12.05
2022-09-02T04:36:32.275Z,11.88
2022-09-02T04:37:07.431Z,10.98
2022-09-02T04:37:39.573Z,11.15
2022-09-02T04:38:12.357Z,11.00
2022-09-02T04:38:44.666Z,11.07
2022-09-02T04:39:17.018Z,11.38
2022-09-02T04:39:49.206Z,11.20
2022-09-02T04:40:21.242Z,11.23
2022-09-02T04:40:53.946Z,10.70
2022-09-02T04:41:27.968Z,11.13
2022-09-02T04:42:02.696Z,12.05
2022-09-02T04:42:35.849Z,10.98
2022-09-02T04:43:08.436Z,11.30
2022-09-02T04:43:41.019Z,11.73
2022-09-02T04:44:13.170Z,10.85
2022-09-02T04:44:48.233Z,10.65
2022-09-02T04:45:20.658Z,10.68
2022-09-02T04:45:53.291Z,9.85
2022-09-02T04:46:29.714Z,9.85
2022-09-02T04:47:07.278Z,11.35
2022-09-02T04:47:39.341Z,9.90
2022-09-02T04:48:13.196Z,10.35
2022-09-02T04:48:47.282Z,10.57
2022-09-02T04:49:20.981Z,9.77
2022-09-02T04:49:56.794Z,9.65
2022-09-02T04:50:28.822Z,10.07
2022-09-02T04:51:05.779Z,9.73
2022-09-02T04:51:38.080Z,9.20
2022-09-02T04:52:11.566Z,10.23
2022-09-02T04:52:44.684Z,9.98
2022-09-02T04:53:17.718Z,9.55
2022-09-02T04:53:50.395Z,9.73
2022-09-02T04:54:23.232Z,10.40
2022-09-02T04:54:56.038Z,10.45
2022-09-02T04:55:28.244Z,10.25
2022-09-02T04:56:02.715Z,9.40
2022-09-02T04:56:35.283Z,9.73
2022-09-02T04:57:09.058Z,9.57
2022-09-02T04:57:42.503Z,9.40
2022-09-02T04:58:16.219Z,10.05
2022-09-02T04:58:50.686Z,9.70
2022-09-02T04:59:25.244Z,8.60
2022-09-02T05:00:07.521Z,9.73
2022-09-02T05:00:40.225Z,9.75
2022-09-02T05:01:16.452Z,8.95
2022-09-02T05:01:50.315Z,9.23
2022-09-02T05:02:26.293Z,8.98
2022-09-02T05:02:58.695Z,8.95
2022-09-02T05:03:34.522Z,9.70
2022-09-02T05:04:09.565Z,9.95
2022-09-02T05:04:45.274Z,8.65
2022-09-02T05:05:24.718Z,9.27
2022-09-02T05:05:58.417Z,9.15
2022-09-02T05:06:30.705Z,9.55
2022-09-02T05:07:04.354Z,8.52
2022-09-02T05:07:40.966Z,8.60
2022-09-02T05:08:14.084Z,8.38
2022-09-02T05:08:50.035Z,8.90
2022-09-02T05:09:22.111Z,7.90
2022-09-02T05:09:59.439Z,9.38
2022-09-02T05:10:34.878Z,8.75
2022-09-02T05:11:10.858Z,8.68
2022-09-02T05:11:43.167Z,8.27
2022-09-02T05:12:15.687Z,8.57
2022-09-02T05:12:53.380Z,9.02
2022-09-02T05:13:26.128Z,8.63
2022-09-02T05:13:59.664Z,9.27
2022-09-02T05:14:32.909Z,9.20
2022-09-02T05:15:09.463Z,9.32
2022-09-02T05:15:44.911Z,9.35
2022-09-02T05:16:18.182Z,9.48
2022-09-02T05:16:53.786Z,8.90
2022-09-02T05:17:26.905Z,8.60
2022-09-02T05:17:59.772Z,8.30
2022-09-02T05:18:31.806Z,8.60
2022-09-02T05:19:04.561Z,8.98
2022-09-02T05:19:43.046Z,7.70
2022-09-02T05:20:15.402Z,8.40
2022-09-02T05:20:49.885Z,9.20
2022-09-02T05:21:24.114Z,8.02
2022-09-02T05:21:59.078Z,8.02
2022-09-02T05:22:38.967Z,7.35
2022-09-02T05:23:13.621Z,7.82
2022-09-02T05:23:47.684Z,7.63
2022-09-02T05:24:24.488Z,7.82
2022-09-02T05:24:59.426Z,7.70
2022-09-02T05:25:33.438Z,7.80
2022-09-02T05:26:06.397Z,7.60
2022-09-02T05:26:38.787Z,7.95
2022-09-02T05:27:11.112Z,7.82
2022-09-02T05:27:43.107Z,7.13
2022-09-02T05:28:16.583Z,7.30
2022-09-02T05:28:48.757Z,7.53
2022-09-02T05:29:20.981Z,7.03
2022-09-02T05:29:57.051Z,7.22
2022-09-02T05:30:29.303Z,7.78
2022-09-02T05:31:05.834Z,7.35
2022-09-02T05:31:38.751Z,7.47
2022-09-02T05:32:11.033Z,6.90
2022-09-02T05:32:44.614Z,7.00
2022-09-02T05:33:16.761Z,8.07
2022-09-02T05:33:53.406Z,7.68
2022-09-02T05:34:26.467Z,6.72
2022-09-02T05:35:02.170Z,6.93
2022-09-02T05:35:34.337Z,7.05
2022-09-02T05:36:14.848Z,7.13
2022-09-02T05:36:47.082Z,6.93
2022-09-02T05:37:19.731Z,7.15
2022-09-02T05:37:55.337Z,6.25
2022-09-02T05:38:29.779Z,6.63
2022-09-02T05:39:02.766Z,6.47
2022-09-02T05:39:35.122Z,6.20
2022-09-02T05:40:07.737Z,7.03
2022-09-02T05:40:41.811Z,6.47
2022-09-02T05:41:16.534Z,6.85
2022-09-02T05:41:49.252Z,6.95
2022-09-02T05:42:22.101Z,6.20
2022-09-02T05:42:56.594Z,6.47
2022-09-02T05:43:28.595Z,5.93
2022-09-02T05:44:03.514Z,6.00
2022-09-02T05:44:38.508Z,6.47
2022-09-02T05:45:11.363Z,6.15
2022-09-02T05:45:48.165Z,5.80
2022-09-02T05:46:22.327Z,6.00
2022-09-02T05:46:55.701Z,6.15
2022-09-02T05:47:28.429Z,6.00
2022-09-02T05:48:20.554Z,6.18
2022-09-02T05:49:09.257Z,5.38
2022-09-02T05:49:50.792Z,5.47
2022-09-02T05:50:22.901Z,4.90
2022-09-02T05:50:57.483Z,5.45
2022-09-02T05:51:31.452Z,5.72
2022-09-02T05:52:04.382Z,4.82
2022-09-02T05:52:45.175Z,5.35
2022-09-02T05:53:17.196Z,4.93
2022-09-02T05:53:53.656Z,5.40
2022-09-02T05:54:30.174Z,5.32
2022-09-02T05:55:04.436Z,4.90
2022-09-02T05:55:38.242Z,5.07
2022-09-02T05:56:10.901Z,5.10
2022-09-02T05:56:45.398Z,5.25
2022-09-02T05:57:18.907Z,5.30
2022-09-02T05:58:16.873Z,4.75
2022-09-02T05:58:49.519Z,4.65
2022-09-02T05:59:23.886Z,4.43
2022-09-02T05:59:56.957Z,4.22
2022-09-02T06:00:34.644Z,4.90
2022-09-02T06:01:07.925Z,4.53
2022-09-02T06:01:40.434Z,4.75
2022-09-02T06:02:13.526Z,4.55
2022-09-02T06:02:45.949Z,3.90
2022-09-02T06:03:29.568Z,4.50
2022-09-02T06:04:02.405Z,3.95
2022-09-02T06:04:39.460Z,4.13
2022-09-02T06:05:12.471Z,4.32
2022-09-02T06:06:02.990Z,4.65
2022-09-02T06:06:37.487Z,4.60
2022-09-02T06:07:11.804Z,4.25
2022-09-02T06:07:46.117Z,4.43
2022-09-02T06:08:18.155Z,4.47
2022-09-02T06:08:50.741Z,4.20
2022-09-02T06:09:23.396Z,3.88
2022-09-02T06:09:56.520Z,3.80
2022-09-02T06:10:30.790Z,4.18
2022-09-02T06:11:03.937Z,4.22
2022-09-02T06:11:43.106Z,3.90
2022-09-02T06:12:18.811Z,3.67
2022-09-02T06:12:50.832Z,3.80
2022-09-02T06:13:26.128Z,4.30
2022-09-02T06:13:59.758Z,3.70
2022-09-02T06:14:32.486Z,3.70
2022-09-02T06:15:05.951Z,3.22
2022-09-02T06:15:43.314Z,3.28
2022-09-02T06:16:17.417Z,3.70
2022-09-02T06:16:54.914Z,3.45
2022-09-02T06:17:40.384Z,3.17
2022-09-02T06:18:15.403Z,3.38
2022-09-02T06:18:49.518Z,3.72
2022-09-02T06:19:22.283Z,3.63
2022-09-02T06:19:57.148Z,4.18
2022-09-02T06:20:32.630Z,3.33
2022-09-02T06:21:06.454Z,3.60
2022-09-02T06:21:43.462Z,3.15
2022-09-02T06:22:15.551Z,3.35
2022-09-02T06:22:48.760Z,3.33
2022-09-02T06:23:20.947Z,3.15
2022-09-02T06:23:53.454Z,3.38
2022-09-02T06:24:26.007Z,3.50
2022-09-02T06:24:58.273Z,3.40
2022-09-02T06:25:31.946Z,3.05
2022-09-02T06:26:04.526Z,3.08
2022-09-02T06:26:37.625Z,3.53
2022-09-02T06:27:09.734Z,3.30
2022-09-02T06:27:44.444Z,3.15
2022-09-02T06:28:17.175Z,3.28
2022-09-02T06:28:51.310Z,2.95
2022-09-02T06:29:24.018Z,3.05
2022-09-02T06:29:56.011Z,3.00
2022-09-02T06:30:30.081Z,2.97
2022-09-02T06:31:11.038Z,3.30
2022-09-02T06:31:44.410Z,3.20
2022-09-02T06:32:16.583Z,2.90
2022-09-02T06:32:50.479Z,2.88
2022-09-02T06:33:23.886Z,3.20
2022-09-02T06:33:58.834Z,2.53
2022-09-02T06:34:32.589Z,2.80
2022-09-02T06:35:04.804Z,3.08
2022-09-02T06:35:41.558Z,3.25
2022-09-02T06:36:16.825Z,2.67
2022-09-02T06:36:50.598Z,3.08
2022-09-02T06:37:25.011Z,2.60
2022-09-02T06:37:58.376Z,2.70
2022-09-02T06:38:30.733Z,2.55
2022-09-02T06:39:02.813Z,2.85
2022-09-02T06:39:38.214Z,2.97
2022-09-02T06:40:12.092Z,2.63
2022-09-02T06:40:49.007Z,2.90
2022-09-02T06:41:26.824Z,2.55
2022-09-02T06:41:59.127Z,2.70
2022-09-02T06:42:34.036Z,2.70
2022-09-02T06:43:18.544Z,2.67
2022-09-02T06:44:15.143Z,2.33
2022-09-02T06:44:48.969Z,2.58
2022-09-02T06:45:21.275Z,2.55
2022-09-02T06:45:53.754Z,2.85
2022-09-02T06:46:31.860Z,2.53
2022-09-02T06:47:05.889Z,3.13
2022-09-02T06:47:39.363Z,2.80
2022-09-02T06:48:12.715Z,3.30
2022-09-02T06:48:45.018Z,2.97
2022-09-02T06:49:17.631Z,2.90
2022-09-02T06:49:52.773Z,3.05
